sensor_id;sensor_type;location;lat;lon;timestamp;P1;durP1;ratioP1;P2;durP2;ratioP2
61460;SDS011;47325;50.506;4.472;2023-05-10T00:01:11;5.60;;;2.50;;
61460;SDS011;47325;50.506;4.472;2023-05-10T00:06:57;4.50;;;2.60;;
61460;SDS011;47325;50.506;4.472;2023-05-10T00:12:43;5.10;;;2.80;;
61460;SDS011;47325;50.506;4.472;2023-05-10T00:18:28;4.70;;;2.60;;
61460;SDS011;47325;50.506;4.472;2023-05-10T00:24:13;6.30;;;2.70;;
61460;SDS011;47325;50.506;4.472;2023-05-10T00:29:57;5.70;;;2.70;;
61460;SDS011;47325;50.506;4.472;2023-05-10T00:35:43;5.10;;;2.80;;
61460;SDS011;47325;50.506;4.472;2023-05-10T00:41:28;8.40;;;2.80;;
61460;SDS011;47325;50.506;4.472;2023-05-10T00:47:12;6.00;;;2.60;;
61460;SDS011;47325;50.506;4.472;2023-05-10T00:52:57;5.70;;;2.90;;
61460;SDS011;47325;50.506;4.472;2023-05-10T00:58:42;6.00;;;2.90;;
61460;SDS011;47325;50.506;4.472;2023-05-10T01:04:27;6.90;;;2.70;;
61460;SDS011;47325;50.506;4.472;2023-05-10T01:10:12;5.00;;;2.30;;
61460;SDS011;47325;50.506;4.472;2023-05-10T01:15:58;5.10;;;2.60;;
61460;SDS011;47325;50.506;4.472;2023-05-10T01:21:46;4.20;;;2.30;;
61460;SDS011;47325;50.506;4.472;2023-05-10T01:33:30;5.30;;;2.70;;
61460;SDS011;47325;50.506;4.472;2023-05-10T01:39:20;4.70;;;2.80;;
61460;SDS011;47325;50.506;4.472;2023-05-10T01:45:11;9.20;;;2.60;;
61460;SDS011;47325;50.506;4.472;2023-05-10T01:50:59;4.90;;;2.90;;
61460;SDS011;47325;50.506;4.472;2023-05-10T01:56:43;5.10;;;3.10;;
61460;SDS011;47325;50.506;4.472;2023-05-10T02:02:29;5.60;;;3.20;;
61460;SDS011;47325;50.506;4.472;2023-05-10T02:08:18;5.40;;;3.30;;
61460;SDS011;47325;50.506;4.472;2023-05-10T02:14:03;6.90;;;3.80;;
61460;SDS011;47325;50.506;4.472;2023-05-10T02:19:49;8.80;;;4.40;;
61460;SDS011;47325;50.506;4.472;2023-05-10T02:25:35;8.50;;;4.80;;
61460;SDS011;47325;50.506;4.472;2023-05-10T02:31:21;8.20;;;4.70;;
61460;SDS011;47325;50.506;4.472;2023-05-10T02:37:07;8.30;;;5.00;;
61460;SDS011;47325;50.506;4.472;2023-05-10T02:42:54;9.80;;;5.10;;
61460;SDS011;47325;50.506;4.472;2023-05-10T02:48:39;8.10;;;5.10;;
61460;SDS011;47325;50.506;4.472;2023-05-10T02:54:24;9.00;;;4.90;;
61460;SDS011;47325;50.506;4.472;2023-05-10T03:00:13;8.60;;;5.10;;
61460;SDS011;47325;50.506;4.472;2023-05-10T03:05:58;8.30;;;4.90;;
61460;SDS011;47325;50.506;4.472;2023-05-10T03:11:46;9.40;;;5.00;;
61460;SDS011;47325;50.506;4.472;2023-05-10T03:17:34;7.80;;;5.00;;
61460;SDS011;47325;50.506;4.472;2023-05-10T03:23:25;6.90;;;4.60;;
61460;SDS011;47325;50.506;4.472;2023-05-10T03:29:11;6.00;;;4.30;;
61460;SDS011;47325;50.506;4.472;2023-05-10T03:34:57;8.00;;;4.20;;
61460;SDS011;47325;50.506;4.472;2023-05-10T03:40:42;6.90;;;3.90;;
61460;SDS011;47325;50.506;4.472;2023-05-10T03:46:27;5.80;;;3.60;;
61460;SDS011;47325;50.506;4.472;2023-05-10T03:52:11;6.30;;;3.60;;
61460;SDS011;47325;50.506;4.472;2023-05-10T03:57:56;6.20;;;3.30;;
61460;SDS011;47325;50.506;4.472;2023-05-10T04:03:41;5.70;;;3.10;;
61460;SDS011;47325;50.506;4.472;2023-05-10T04:09:26;5.50;;;3.40;;
61460;SDS011;47325;50.506;4.472;2023-05-10T04:15:11;6.30;;;3.10;;
61460;SDS011;47325;50.506;4.472;2023-05-10T04:20:57;6.50;;;3.00;;
61460;SDS011;47325;50.506;4.472;2023-05-10T04:26:41;6.80;;;3.00;;
61460;SDS011;47325;50.506;4.472;2023-05-10T04:32:26;5.60;;;2.60;;
61460;SDS011;47325;50.506;4.472;2023-05-10T04:38:11;5.10;;;2.70;;
61460;SDS011;47325;50.506;4.472;2023-05-10T04:43:56;6.70;;;2.50;;
61460;SDS011;47325;50.506;4.472;2023-05-10T04:49:41;5.20;;;2.40;;
61460;SDS011;47325;50.506;4.472;2023-05-10T04:55:25;5.00;;;2.20;;
61460;SDS011;47325;50.506;4.472;2023-05-10T05:01:10;4.50;;;2.10;;
61460;SDS011;47325;50.506;4.472;2023-05-10T05:06:55;4.80;;;2.00;;
61460;SDS011;47325;50.506;4.472;2023-05-10T05:12:40;5.10;;;2.00;;
61460;SDS011;47325;50.506;4.472;2023-05-10T05:18:25;2.80;;;1.60;;
61460;SDS011;47325;50.506;4.472;2023-05-10T05:24:10;4.70;;;1.80;;
61460;SDS011;47325;50.506;4.472;2023-05-10T05:29:56;4.60;;;1.60;;
61460;SDS011;47325;50.506;4.472;2023-05-10T05:35:41;3.30;;;1.60;;
61460;SDS011;47325;50.506;4.472;2023-05-10T05:41:25;3.20;;;1.40;;
61460;SDS011;47325;50.506;4.472;2023-05-10T05:47:10;3.30;;;1.80;;
61460;SDS011;47325;50.506;4.472;2023-05-10T05:52:55;4.90;;;1.60;;
61460;SDS011;47325;50.506;4.472;2023-05-10T05:58:40;4.00;;;1.50;;
61460;SDS011;47325;50.506;4.472;2023-05-10T06:04:25;3.90;;;1.50;;
61460;SDS011;47325;50.506;4.472;2023-05-10T06:10:11;3.80;;;1.30;;
61460;SDS011;47325;50.506;4.472;2023-05-10T06:15:57;3.10;;;1.20;;
61460;SDS011;47325;50.506;4.472;2023-05-10T06:21:43;2.80;;;1.10;;
61460;SDS011;47325;50.506;4.472;2023-05-10T06:27:28;2.00;;;1.20;;
61460;SDS011;47325;50.506;4.472;2023-05-10T06:33:13;2.90;;;1.20;;
61460;SDS011;47325;50.506;4.472;2023-05-10T06:38:57;2.00;;;1.00;;
61460;SDS011;47325;50.506;4.472;2023-05-10T06:44:42;1.40;;;1.10;;
61460;SDS011;47325;50.506;4.472;2023-05-10T06:50:27;2.80;;;1.20;;
61460;SDS011;47325;50.506;4.472;2023-05-10T06:56:12;2.10;;;1.20;;
61460;SDS011;47325;50.506;4.472;2023-05-10T07:01:57;2.10;;;1.10;;
61460;SDS011;47325;50.506;4.472;2023-05-10T07:07:42;2.40;;;1.10;;
61460;SDS011;47325;50.506;4.472;2023-05-10T07:13:27;2.40;;;1.30;;
61460;SDS011;47325;50.506;4.472;2023-05-10T07:19:12;1.60;;;1.10;;
61460;SDS011;47325;50.506;4.472;2023-05-10T07:24:56;3.60;;;1.70;;
61460;SDS011;47325;50.506;4.472;2023-05-10T07:30:42;2.20;;;1.40;;
61460;SDS011;47325;50.506;4.472;2023-05-10T07:36:27;3.00;;;1.60;;
61460;SDS011;47325;50.506;4.472;2023-05-10T07:42:12;2.70;;;1.50;;
61460;SDS011;47325;50.506;4.472;2023-05-10T07:47:57;3.20;;;1.60;;
61460;SDS011;47325;50.506;4.472;2023-05-10T07:53:42;2.90;;;1.50;;
61460;SDS011;47325;50.506;4.472;2023-05-10T07:59:26;2.70;;;1.60;;
61460;SDS011;47325;50.506;4.472;2023-05-10T08:05:11;2.00;;;1.40;;
61460;SDS011;47325;50.506;4.472;2023-05-10T08:10:57;2.30;;;1.50;;
61460;SDS011;47325;50.506;4.472;2023-05-10T08:16:42;2.40;;;1.40;;
61460;SDS011;47325;50.506;4.472;2023-05-10T08:22:26;2.80;;;1.50;;
61460;SDS011;47325;50.506;4.472;2023-05-10T08:28:11;2.90;;;1.30;;
61460;SDS011;47325;50.506;4.472;2023-05-10T08:33:56;2.10;;;1.30;;
61460;SDS011;47325;50.506;4.472;2023-05-10T08:39:41;3.20;;;1.80;;
61460;SDS011;47325;50.506;4.472;2023-05-10T08:45:26;2.20;;;1.30;;
61460;SDS011;47325;50.506;4.472;2023-05-10T08:51:17;1.80;;;1.20;;
61460;SDS011;47325;50.506;4.472;2023-05-10T08:57:02;1.90;;;1.10;;
61460;SDS011;47325;50.506;4.472;2023-05-10T09:02:47;1.50;;;1.10;;
61460;SDS011;47325;50.506;4.472;2023-05-10T09:08:32;2.00;;;1.20;;
61460;SDS011;47325;50.506;4.472;2023-05-10T09:14:18;2.40;;;1.20;;
61460;SDS011;47325;50.506;4.472;2023-05-10T09:20:05;1.60;;;1.30;;
61460;SDS011;47325;50.506;4.472;2023-05-10T09:25:50;2.50;;;1.20;;
61460;SDS011;47325;50.506;4.472;2023-05-10T09:31:49;2.40;;;1.00;;
61460;SDS011;47325;50.506;4.472;2023-05-10T09:37:34;1.20;;;0.90;;
61460;SDS011;47325;50.506;4.472;2023-05-10T09:43:18;1.50;;;1.00;;
61460;SDS011;47325;50.506;4.472;2023-05-10T09:49:04;1.20;;;0.90;;
61460;SDS011;47325;50.506;4.472;2023-05-10T09:54:52;1.60;;;0.90;;
61460;SDS011;47325;50.506;4.472;2023-05-10T10:00:38;1.50;;;0.90;;
61460;SDS011;47325;50.506;4.472;2023-05-10T10:06:24;1.00;;;0.90;;
61460;SDS011;47325;50.506;4.472;2023-05-10T10:12:13;1.00;;;0.70;;
61460;SDS011;47325;50.506;4.472;2023-05-10T10:17:58;1.20;;;0.70;;
61460;SDS011;47325;50.506;4.472;2023-05-10T10:23:44;0.90;;;0.70;;
61460;SDS011;47325;50.506;4.472;2023-05-10T10:29:31;1.10;;;0.70;;
61460;SDS011;47325;50.506;4.472;2023-05-10T10:35:20;1.70;;;0.70;;
61460;SDS011;47325;50.506;4.472;2023-05-10T10:41:08;0.90;;;0.60;;
61460;SDS011;47325;50.506;4.472;2023-05-10T10:47:04;0.80;;;0.60;;
61460;SDS011;47325;50.506;4.472;2023-05-10T10:52:50;0.70;;;0.50;;
61460;SDS011;47325;50.506;4.472;2023-05-10T10:58:35;0.90;;;0.60;;
61460;SDS011;47325;50.506;4.472;2023-05-10T11:04:20;1.00;;;0.60;;
61460;SDS011;47325;50.506;4.472;2023-05-10T11:10:08;2.10;;;0.60;;
61460;SDS011;47325;50.506;4.472;2023-05-10T11:15:53;0.90;;;0.60;;
61460;SDS011;47325;50.506;4.472;2023-05-10T11:21:45;0.90;;;0.60;;
61460;SDS011;47325;50.506;4.472;2023-05-10T11:27:28;1.10;;;0.70;;
61460;SDS011;47325;50.506;4.472;2023-05-10T11:33:14;0.80;;;0.60;;
61460;SDS011;47325;50.506;4.472;2023-05-10T11:39:00;0.80;;;0.50;;
61460;SDS011;47325;50.506;4.472;2023-05-10T11:44:45;1.10;;;0.60;;
61460;SDS011;47325;50.506;4.472;2023-05-10T11:50:30;0.80;;;0.60;;
61460;SDS011;47325;50.506;4.472;2023-05-10T11:56:15;0.70;;;0.60;;
61460;SDS011;47325;50.506;4.472;2023-05-10T12:01:59;1.00;;;0.50;;
61460;SDS011;47325;50.506;4.472;2023-05-10T12:07:45;1.50;;;0.50;;
61460;SDS011;47325;50.506;4.472;2023-05-10T12:13:30;0.40;;;0.40;;
61460;SDS011;47325;50.506;4.472;2023-05-10T12:19:15;1.20;;;0.60;;
61460;SDS011;47325;50.506;4.472;2023-05-10T12:25:03;0.70;;;0.50;;
61460;SDS011;47325;50.506;4.472;2023-05-10T12:30:47;0.40;;;0.40;;
61460;SDS011;47325;50.506;4.472;2023-05-10T12:36:32;0.50;;;0.50;;
61460;SDS011;47325;50.506;4.472;2023-05-10T12:42:17;1.00;;;0.50;;
61460;SDS011;47325;50.506;4.472;2023-05-10T12:48:05;0.80;;;0.60;;
61460;SDS011;47325;50.506;4.472;2023-05-10T12:53:50;1.40;;;0.70;;
61460;SDS011;47325;50.506;4.472;2023-05-10T12:59:36;2.00;;;0.70;;
61460;SDS011;47325;50.506;4.472;2023-05-10T13:05:21;1.40;;;0.60;;
61460;SDS011;47325;50.506;4.472;2023-05-10T13:11:06;2.00;;;0.80;;
61460;SDS011;47325;50.506;4.472;2023-05-10T13:16:52;1.40;;;0.80;;
61460;SDS011;47325;50.506;4.472;2023-05-10T13:22:37;2.10;;;0.80;;
61460;SDS011;47325;50.506;4.472;2023-05-10T13:28:24;1.40;;;0.70;;
61460;SDS011;47325;50.506;4.472;2023-05-10T13:34:08;1.20;;;0.70;;
61460;SDS011;47325;50.506;4.472;2023-05-10T13:39:53;1.00;;;0.70;;
61460;SDS011;47325;50.506;4.472;2023-05-10T13:45:38;2.70;;;0.70;;
61460;SDS011;47325;50.506;4.472;2023-05-10T13:51:23;2.00;;;0.70;;
61460;SDS011;47325;50.506;4.472;2023-05-10T13:57:08;0.80;;;0.60;;
61460;SDS011;47325;50.506;4.472;2023-05-10T14:02:54;2.00;;;0.60;;
61460;SDS011;47325;50.506;4.472;2023-05-10T14:08:39;1.00;;;0.60;;
61460;SDS011;47325;50.506;4.472;2023-05-10T14:14:24;1.20;;;0.60;;
61460;SDS011;47325;50.506;4.472;2023-05-10T14:20:10;1.70;;;0.60;;
61460;SDS011;47325;50.506;4.472;2023-05-10T14:25:55;2.20;;;0.60;;
61460;SDS011;47325;50.506;4.472;2023-05-10T14:31:40;1.30;;;0.50;;
61460;SDS011;47325;50.506;4.472;2023-05-10T14:37:26;0.80;;;0.50;;
61460;SDS011;47325;50.506;4.472;2023-05-10T14:43:12;1.40;;;0.60;;
61460;SDS011;47325;50.506;4.472;2023-05-10T14:48:57;1.60;;;0.60;;
61460;SDS011;47325;50.506;4.472;2023-05-10T14:54:42;1.30;;;0.70;;
61460;SDS011;47325;50.506;4.472;2023-05-10T15:00:27;0.60;;;0.60;;
61460;SDS011;47325;50.506;4.472;2023-05-10T15:06:14;1.70;;;0.70;;
61460;SDS011;47325;50.506;4.472;2023-05-10T15:11:58;0.70;;;0.70;;
61460;SDS011;47325;50.506;4.472;2023-05-10T15:17:43;0.80;;;0.70;;
61460;SDS011;47325;50.506;4.472;2023-05-10T15:23:28;1.00;;;0.80;;
61460;SDS011;47325;50.506;4.472;2023-05-10T15:29:13;1.20;;;0.80;;
61460;SDS011;47325;50.506;4.472;2023-05-10T15:34:58;1.60;;;1.00;;
61460;SDS011;47325;50.506;4.472;2023-05-10T15:40:42;4.10;;;1.60;;
61460;SDS011;47325;50.506;4.472;2023-05-10T15:46:27;3.60;;;1.60;;
61460;SDS011;47325;50.506;4.472;2023-05-10T15:52:13;2.70;;;1.40;;
61460;SDS011;47325;50.506;4.472;2023-05-10T15:57:57;2.50;;;1.60;;
61460;SDS011;47325;50.506;4.472;2023-05-10T16:03:42;3.30;;;1.50;;
61460;SDS011;47325;50.506;4.472;2023-05-10T16:09:27;2.60;;;1.60;;
61460;SDS011;47325;50.506;4.472;2023-05-10T16:15:12;1.70;;;1.40;;
61460;SDS011;47325;50.506;4.472;2023-05-10T16:20:58;1.90;;;1.30;;
61460;SDS011;47325;50.506;4.472;2023-05-10T16:26:43;2.40;;;1.40;;
61460;SDS011;47325;50.506;4.472;2023-05-10T16:32:28;2.40;;;1.50;;
61460;SDS011;47325;50.506;4.472;2023-05-10T16:38:13;2.50;;;1.60;;
61460;SDS011;47325;50.506;4.472;2023-05-10T16:43:58;5.80;;;3.50;;
61460;SDS011;47325;50.506;4.472;2023-05-10T16:49:42;37.30;;;21.00;;
61460;SDS011;47325;50.506;4.472;2023-05-10T16:55:27;26.40;;;15.80;;
61460;SDS011;47325;50.506;4.472;2023-05-10T17:01:12;21.80;;;13.70;;
61460;SDS011;47325;50.506;4.472;2023-05-10T17:06:57;21.00;;;12.90;;
61460;SDS011;47325;50.506;4.472;2023-05-10T17:12:41;19.40;;;11.80;;
61460;SDS011;47325;50.506;4.472;2023-05-10T17:18:26;18.10;;;11.40;;
61460;SDS011;47325;50.506;4.472;2023-05-10T17:24:11;16.70;;;10.40;;
61460;SDS011;47325;50.506;4.472;2023-05-10T17:29:58;15.90;;;9.90;;
61460;SDS011;47325;50.506;4.472;2023-05-10T17:35:43;14.90;;;9.30;;
61460;SDS011;47325;50.506;4.472;2023-05-10T17:41:28;12.40;;;8.70;;
61460;SDS011;47325;50.506;4.472;2023-05-10T17:47:13;13.20;;;8.40;;
61460;SDS011;47325;50.506;4.472;2023-05-10T17:52:58;12.80;;;8.10;;
61460;SDS011;47325;50.506;4.472;2023-05-10T17:58:43;10.40;;;7.00;;
61460;SDS011;47325;50.506;4.472;2023-05-10T18:04:28;13.10;;;7.50;;
61460;SDS011;47325;50.506;4.472;2023-05-10T18:10:13;12.30;;;6.70;;
61460;SDS011;47325;50.506;4.472;2023-05-10T18:15:59;10.80;;;6.60;;
61460;SDS011;47325;50.506;4.472;2023-05-10T18:21:44;10.40;;;6.40;;
61460;SDS011;47325;50.506;4.472;2023-05-10T18:27:29;10.80;;;6.60;;
61460;SDS011;47325;50.506;4.472;2023-05-10T18:33:14;8.60;;;5.90;;
61460;SDS011;47325;50.506;4.472;2023-05-10T18:38:59;10.00;;;5.90;;
61460;SDS011;47325;50.506;4.472;2023-05-10T18:44:43;10.60;;;6.10;;
61460;SDS011;47325;50.506;4.472;2023-05-10T18:50:30;10.50;;;6.10;;
61460;SDS011;47325;50.506;4.472;2023-05-10T18:56:15;9.10;;;5.30;;
61460;SDS011;47325;50.506;4.472;2023-05-10T19:01:59;9.70;;;5.80;;
61460;SDS011;47325;50.506;4.472;2023-05-10T19:07:44;7.50;;;5.30;;
61460;SDS011;47325;50.506;4.472;2023-05-10T19:13:29;7.70;;;5.10;;
61460;SDS011;47325;50.506;4.472;2023-05-10T19:19:14;7.30;;;4.80;;
61460;SDS011;47325;50.506;4.472;2023-05-10T19:25:03;9.80;;;5.00;;
61460;SDS011;47325;50.506;4.472;2023-05-10T19:30:49;6.90;;;4.60;;
61460;SDS011;47325;50.506;4.472;2023-05-10T19:36:34;7.30;;;4.40;;
61460;SDS011;47325;50.506;4.472;2023-05-10T19:42:19;6.30;;;4.20;;
61460;SDS011;47325;50.506;4.472;2023-05-10T19:48:05;7.00;;;4.40;;
61460;SDS011;47325;50.506;4.472;2023-05-10T19:53:52;7.10;;;4.10;;
61460;SDS011;47325;50.506;4.472;2023-05-10T19:59:37;7.20;;;4.30;;
61460;SDS011;47325;50.506;4.472;2023-05-10T20:05:22;6.40;;;4.20;;
61460;SDS011;47325;50.506;4.472;2023-05-10T20:11:07;6.40;;;4.00;;
61460;SDS011;47325;50.506;4.472;2023-05-10T20:16:52;5.70;;;3.70;;
61460;SDS011;47325;50.506;4.472;2023-05-10T20:22:37;6.30;;;3.90;;
61460;SDS011;47325;50.506;4.472;2023-05-10T20:28:23;5.70;;;3.70;;
61460;SDS011;47325;50.506;4.472;2023-05-10T20:34:07;5.60;;;3.70;;
61460;SDS011;47325;50.506;4.472;2023-05-10T20:39:52;5.70;;;3.70;;
61460;SDS011;47325;50.506;4.472;2023-05-10T20:45:38;4.80;;;3.50;;
61460;SDS011;47325;50.506;4.472;2023-05-10T20:51:23;6.90;;;3.70;;
61460;SDS011;47325;50.506;4.472;2023-05-10T20:57:08;5.50;;;3.60;;
61460;SDS011;47325;50.506;4.472;2023-05-10T21:02:53;5.50;;;3.50;;
61460;SDS011;47325;50.506;4.472;2023-05-10T21:08:38;6.60;;;3.10;;
61460;SDS011;47325;50.506;4.472;2023-05-10T21:14:23;6.20;;;3.20;;
61460;SDS011;47325;50.506;4.472;2023-05-10T21:20:08;5.90;;;3.40;;
61460;SDS011;47325;50.506;4.472;2023-05-10T21:25:53;6.40;;;3.50;;
61460;SDS011;47325;50.506;4.472;2023-05-10T21:31:38;6.10;;;3.20;;
61460;SDS011;47325;50.506;4.472;2023-05-10T21:37:22;5.00;;;3.10;;
61460;SDS011;47325;50.506;4.472;2023-05-10T21:43:07;5.90;;;3.20;;
61460;SDS011;47325;50.506;4.472;2023-05-10T21:48:52;5.80;;;3.00;;
61460;SDS011;47325;50.506;4.472;2023-05-10T21:54:37;5.60;;;3.10;;
61460;SDS011;47325;50.506;4.472;2023-05-10T22:00:21;5.10;;;3.20;;
61460;SDS011;47325;50.506;4.472;2023-05-10T22:06:06;5.10;;;3.20;;
61460;SDS011;47325;50.506;4.472;2023-05-10T22:11:51;5.30;;;3.10;;
61460;SDS011;47325;50.506;4.472;2023-05-10T22:17:36;6.50;;;3.10;;
61460;SDS011;47325;50.506;4.472;2023-05-10T22:23:22;4.90;;;2.90;;
61460;SDS011;47325;50.506;4.472;2023-05-10T22:29:07;6.60;;;3.00;;
61460;SDS011;47325;50.506;4.472;2023-05-10T22:34:52;6.10;;;3.10;;
61460;SDS011;47325;50.506;4.472;2023-05-10T22:40:39;4.50;;;2.80;;
61460;SDS011;47325;50.506;4.472;2023-05-10T22:46:23;6.50;;;2.80;;
61460;SDS011;47325;50.506;4.472;2023-05-10T22:52:08;6.40;;;3.10;;
61460;SDS011;47325;50.506;4.472;2023-05-10T22:57:53;4.40;;;2.70;;
61460;SDS011;47325;50.506;4.472;2023-05-10T23:03:38;5.30;;;2.80;;
61460;SDS011;47325;50.506;4.472;2023-05-10T23:09:23;4.70;;;2.60;;
61460;SDS011;47325;50.506;4.472;2023-05-10T23:15:08;5.30;;;2.50;;
61460;SDS011;47325;50.506;4.472;2023-05-10T23:20:53;5.10;;;2.50;;
61460;SDS011;47325;50.506;4.472;2023-05-10T23:26:38;5.60;;;2.40;;
61460;SDS011;47325;50.506;4.472;2023-05-10T23:32:23;5.00;;;2.50;;
61460;SDS011;47325;50.506;4.472;2023-05-10T23:38:08;7.80;;;2.70;;
61460;SDS011;47325;50.506;4.472;2023-05-10T23:43:53;6.00;;;2.70;;
61460;SDS011;47325;50.506;4.472;2023-05-10T23:49:37;5.30;;;2.60;;
61460;SDS011;47325;50.506;4.472;2023-05-10T23:55:22;6.30;;;2.60;;
